createdAt,value
2018-08-10T00:00:20.936Z,1.50
2018-08-10T00:02:48.845Z,1.40
2018-08-10T00:05:16.456Z,1.80
2018-08-10T00:07:44.040Z,1.60
2018-08-10T00:10:13.025Z,1.63
2018-08-10T00:12:40.817Z,1.57
2018-08-10T00:15:09.997Z,1.70
2018-08-10T00:17:38.254Z,1.50
2018-08-10T00:20:11.186Z,1.60
2018-08-10T00:22:38.865Z,1.80
2018-08-10T00:25:09.085Z,1.60
2018-08-10T00:27:36.773Z,1.70
2018-08-10T00:30:11.487Z,1.80
2018-08-10T00:32:39.225Z,1.60
2018-08-10T00:35:08.108Z,1.70
2018-08-10T00:37:35.752Z,1.90
2018-08-10T00:40:04.369Z,1.70
2018-08-10T00:42:32.048Z,1.70
2018-08-10T00:44:59.633Z,2.00
2018-08-10T00:47:29.335Z,1.93
2018-08-10T00:49:56.940Z,1.70
2018-08-10T00:52:24.560Z,1.80
2018-08-10T00:54:52.194Z,1.80
2018-08-10T00:57:19.812Z,1.83
2018-08-10T00:59:47.432Z,2.03
2018-08-10T01:02:15.057Z,1.70
2018-08-10T01:04:42.701Z,1.93
2018-08-10T01:07:10.324Z,1.60
2018-08-10T01:09:38.021Z,1.97
2018-08-10T01:12:05.769Z,2.03
2018-08-10T01:14:33.391Z,1.90
2018-08-10T01:17:01.010Z,2.13
2018-08-10T01:19:28.737Z,2.00
2018-08-10T01:21:56.294Z,2.27
2018-08-10T01:24:24.129Z,2.53
2018-08-10T01:26:51.732Z,2.20
2018-08-10T01:29:19.312Z,2.43
2018-08-10T01:31:46.929Z,2.27
2018-08-10T01:34:14.529Z,2.60
2018-08-10T01:36:42.149Z,2.57
2018-08-10T01:39:10.697Z,2.40
2018-08-10T01:41:38.492Z,2.50
2018-08-10T01:44:06.557Z,2.13
2018-08-10T01:46:34.181Z,2.20
2018-08-10T01:49:01.773Z,2.10
2018-08-10T01:51:29.397Z,2.47
2018-08-10T01:53:56.977Z,2.30
2018-08-10T01:56:24.837Z,2.13
2018-08-10T01:58:52.421Z,2.20
2018-08-10T02:01:20.037Z,2.30
2018-08-10T02:03:47.625Z,2.30
2018-08-10T02:06:15.241Z,2.03
2018-08-10T02:08:42.842Z,2.33
2018-08-10T02:11:10.435Z,2.30
2018-08-10T02:13:38.173Z,2.30
2018-08-10T02:16:05.852Z,2.20
2018-08-10T02:18:33.424Z,2.47
2018-08-10T02:21:01.010Z,1.97
2018-08-10T02:23:28.596Z,2.10
2018-08-10T02:25:56.236Z,2.23
2018-08-10T02:28:23.825Z,2.10
2018-08-10T02:30:51.409Z,1.83
2018-08-10T02:33:18.956Z,1.87
2018-08-10T02:35:46.521Z,1.90
2018-08-10T02:38:14.365Z,2.20
2018-08-10T02:40:41.921Z,2.10
2018-08-10T02:43:09.578Z,2.00
2018-08-10T02:45:37.100Z,2.00
2018-08-10T02:48:04.709Z,1.97
2018-08-10T02:50:32.273Z,2.10
2018-08-10T02:53:06.817Z,1.90
2018-08-10T02:55:34.317Z,1.83
2018-08-10T02:58:02.009Z,1.53
2018-08-10T03:00:29.541Z,1.77
2018-08-10T03:02:57.069Z,1.73
2018-08-10T03:05:24.636Z,1.77
2018-08-10T03:07:52.196Z,1.70
2018-08-10T03:10:19.711Z,1.60
2018-08-10T03:12:47.272Z,1.50
2018-08-10T03:15:15.936Z,1.73
2018-08-10T03:17:43.940Z,1.50
2018-08-10T03:20:11.640Z,1.50
2018-08-10T03:22:39.322Z,1.50
2018-08-10T03:25:07.900Z,1.50
2018-08-10T03:27:35.513Z,1.90
2018-08-10T03:30:03.722Z,1.50
2018-08-10T03:32:31.305Z,1.77
2018-08-10T03:34:58.857Z,1.90
2018-08-10T03:37:26.400Z,1.80
2018-08-10T03:39:53.998Z,2.07
2018-08-10T03:42:21.552Z,1.90
2018-08-10T03:44:49.121Z,1.70
2018-08-10T03:47:16.673Z,1.93
2018-08-10T03:49:44.251Z,1.80
2018-08-10T03:52:12.012Z,1.73
2018-08-10T03:54:40.293Z,2.00
2018-08-10T03:57:07.877Z,1.93
2018-08-10T03:59:35.477Z,1.70
2018-08-10T04:02:03.098Z,1.80
2018-08-10T04:04:30.657Z,1.97
2018-08-10T04:06:58.241Z,1.70
2018-08-10T04:09:26.024Z,1.93
2018-08-10T04:11:53.565Z,1.70
2018-08-10T04:14:21.169Z,1.70
2018-08-10T04:16:48.721Z,1.63
2018-08-10T04:19:16.269Z,1.80
2018-08-10T04:21:43.820Z,1.90
2018-08-10T04:24:11.420Z,2.00
2018-08-10T04:26:39.036Z,1.53
2018-08-10T04:29:07.201Z,1.90
2018-08-10T04:31:34.792Z,2.10
2018-08-10T04:34:02.309Z,1.97
2018-08-10T04:36:29.887Z,1.87
2018-08-10T04:38:57.426Z,1.97
2018-08-10T04:41:24.970Z,1.70
2018-08-10T04:43:52.512Z,1.83
2018-08-10T04:46:20.125Z,1.80
2018-08-10T04:48:47.674Z,2.00
2018-08-10T04:51:15.227Z,2.00
2018-08-10T04:53:42.768Z,1.70
2018-08-10T04:56:10.335Z,1.97
2018-08-10T04:58:37.941Z,1.70
2018-08-10T05:01:05.731Z,1.87
